Time;durP1;ratioP1;P1;durP2;ratioP2;P2;SDS_P1;SDS_P2;PMS_P1;PMS_P2;Temp;Humidity;BMP_temperature;BMP_pressure;BME280_temperature;BME280_humidity;BME280_pressure;Samples;Min_cycle;Max_cycle;Signal;HPM_P1;HPM_P2
2022/01/21 00:01:37;;;;;;;6.28;2.97;;;8.20;99.90;;;;;;5076659;28;20043;-61
2022/01/21 00:04:06;;;;;;;5.95;2.40;;;8.30;99.90;;;;;;5077003;28;20376;-62
2022/01/21 00:06:33;;;;;;;9.73;2.75;;;8.30;99.90;;;;;;5076283;28;20041;-61
2022/01/21 00:08:59;;;;;;;4.57;2.63;;;8.20;99.90;;;;;;5076913;28;20035;-61
2022/01/21 00:11:30;;;;;;;4.60;2.10;;;8.20;99.90;;;;;;5076902;28;20017;-61
2022/01/21 00:13:57;;;;;;;4.88;3.00;;;8.20;99.90;;;;;;5076509;28;20110;-61
2022/01/21 00:16:26;;;;;;;4.50;2.67;;;8.20;99.90;;;;;;5076433;28;20142;-62
2022/01/21 00:19:15;;;;;;;6.88;3.50;;;8.10;99.90;;;;;;5076657;28;20032;-62
2022/01/21 00:32:41;;;;;;;7.75;3.17;;;7.90;99.90;;;;;;5074936;28;20516;-61
2022/01/21 00:35:08;;;;;;;15.77;3.90;;;7.90;99.90;;;;;;5074834;28;20025;-61
2022/01/21 00:37:35;;;;;;;5.28;2.45;;;7.90;99.90;;;;;;5076827;28;20119;-62
2022/01/21 00:40:05;;;;;;;8.23;3.05;;;7.90;99.90;;;;;;5074820;28;20024;-62
2022/01/21 00:45:08;;;;;;;7.57;3.20;;;7.90;99.90;;;;;;5075907;28;20029;-62
2022/01/21 00:47:35;;;;;;;3.97;2.35;;;7.90;99.90;;;;;;5076170;28;20028;-61
2022/01/21 00:50:03;;;;;;;4.40;2.35;;;7.90;99.90;;;;;;5076188;28;20166;-61
2022/01/21 00:52:30;;;;;;;5.95;2.33;;;8.00;99.90;;;;;;5075734;28;20052;-62
2022/01/21 00:54:56;;;;;;;4.15;2.15;;;8.00;99.90;;;;;;5075372;28;20017;-62
2022/01/21 00:57:23;;;;;;;4.80;2.58;;;8.10;99.90;;;;;;5057803;28;20040;-61
2022/01/21 00:59:49;;;;;;;9.82;3.35;;;8.10;99.90;;;;;;5075950;28;20165;-62
2022/01/21 01:02:17;;;;;;;6.40;2.50;;;8.20;99.90;;;;;;5075617;28;20389;-62
2022/01/21 01:04:44;;;;;;;5.95;2.50;;;8.20;99.90;;;;;;5075213;28;20366;-62
2022/01/21 01:07:11;;;;;;;6.00;2.22;;;8.20;99.90;;;;;;5075908;28;20043;-62
2022/01/21 01:09:37;;;;;;;8.20;2.72;;;8.20;99.90;;;;;;5075689;28;20492;-62
2022/01/21 01:12:17;;;;;;;3.65;2.45;;;8.20;99.90;;;;;;5075347;28;20119;-61
2022/01/21 01:20:15;;;;;;;3.60;1.83;;;8.40;99.90;;;;;;5074729;28;20020;-62
2022/01/21 01:22:54;;;;;;;8.95;2.28;;;8.50;99.90;;;;;;5075217;28;20032;-62
2022/01/21 01:28:07;;;;;;;6.60;2.22;;;8.50;99.90;;;;;;5075107;28;20028;-61
2022/01/21 01:30:36;;;;;;;6.00;2.38;;;8.60;99.90;;;;;;5075091;28;20099;-62
2022/01/21 01:33:08;;;;;;;3.40;1.60;;;8.60;99.90;;;;;;5075537;28;20029;-62
2022/01/21 01:35:38;;;;;;;3.78;1.67;;;8.60;99.90;;;;;;5074938;28;20520;-61
2022/01/21 01:41:04;;;;;;;6.97;4.03;;;8.60;99.90;;;;;;5074828;28;20497;-61
2022/01/21 01:51:33;;;;;;;6.88;1.95;;;9.10;99.90;;;;;;5073438;28;20025;-61
2022/01/21 01:54:05;;;;;;;2.10;1.60;;;9.20;99.90;;;;;;5074591;28;20105;-61
2022/01/21 01:56:36;;;;;;;4.32;2.00;;;9.20;99.90;;;;;;5074792;28;20045;-61
2022/01/21 01:59:04;;;;;;;10.73;2.13;;;9.30;99.90;;;;;;5073212;28;20048;-62
2022/01/21 02:01:30;;;;;;;2.88;1.38;;;9.40;99.90;;;;;;5074493;28;20021;-61
2022/01/21 02:03:57;;;;;;;5.32;1.92;;;9.30;99.90;;;;;;5074370;28;20060;-62
2022/01/21 02:06:24;;;;;;;3.78;1.88;;;9.40;99.90;;;;;;5072029;28;20071;-61
2022/01/21 02:08:51;;;;;;;4.10;1.67;;;9.40;99.90;;;;;;5073106;28;20487;-62
2022/01/21 02:11:18;;;;;;;2.70;1.45;;;9.50;99.90;;;;;;5072949;28;20066;-62
2022/01/21 02:13:49;;;;;;;4.00;2.00;;;9.50;99.90;;;;;;5074483;28;20033;-61
2022/01/21 02:21:45;;;;;;;3.72;1.60;;;9.50;99.90;;;;;;5074010;28;20063;-62
2022/01/21 02:24:24;;;;;;;2.88;1.77;;;9.50;99.90;;;;;;5072814;28;20119;-62
2022/01/21 02:26:52;;;;;;;10.75;1.70;;;9.50;99.90;;;;;;5074280;28;20063;-62
2022/01/21 02:29:32;;;;;;;4.13;1.55;;;9.50;99.90;;;;;;5073886;28;20033;-62
2022/01/21 02:32:03;;;;;;;5.32;1.58;;;9.50;99.90;;;;;;5073747;28;20485;-62
2022/01/21 02:34:32;;;;;;;5.53;2.00;;;9.50;99.90;;;;;;5073863;28;20036;-60
2022/01/21 02:37:00;;;;;;;5.75;1.83;;;9.50;99.90;;;;;;5073973;28;20060;-60
2022/01/21 02:39:27;;;;;;;8.13;1.90;;;9.40;99.90;;;;;;5073744;28;20032;-60
2022/01/21 02:41:55;;;;;;;11.45;2.10;;;9.50;99.90;;;;;;5072508;28;20051;-59
2022/01/21 02:44:24;;;;;;;4.57;2.15;;;9.50;99.90;;;;;;5073696;28;20385;-59
2022/01/21 02:46:58;;;;;;;4.45;1.70;;;9.50;99.90;;;;;;5072478;28;20024;-60
2022/01/21 02:49:31;;;;;;;7.00;2.03;;;9.50;99.90;;;;;;5073884;28;20473;-60
2022/01/21 02:52:07;;;;;;;4.78;1.83;;;9.50;99.90;;;;;;5073940;28;20024;-60
2022/01/21 02:54:35;;;;;;;10.95;2.05;;;9.50;99.90;;;;;;5072292;28;20029;-60
2022/01/21 02:57:06;;;;;;;4.55;2.05;;;9.40;99.90;;;;;;5073476;28;20041;-60
2022/01/21 02:59:34;;;;;;;2.40;1.58;;;9.40;99.90;;;;;;5073642;28;20034;-60
2022/01/21 03:02:01;;;;;;;8.85;2.20;;;9.30;99.90;;;;;;5073508;28;20159;-60
2022/01/21 03:06:57;;;;;;;6.97;2.20;;;9.30;99.90;;;;;;5055698;28;20051;-60
2022/01/21 03:09:24;;;;;;;6.78;2.15;;;9.20;99.90;;;;;;5072164;28;20371;-60
2022/01/21 03:11:51;;;;;;;4.82;2.10;;;9.20;99.90;;;;;;5072180;28;20083;-60
2022/01/21 03:14:17;;;;;;;4.15;1.90;;;9.20;99.90;;;;;;5073276;28;20028;-60
2022/01/21 03:16:44;;;;;;;3.38;1.75;;;9.10;99.90;;;;;;5072024;28;20044;-60
2022/01/21 03:19:12;;;;;;;4.97;2.08;;;9.10;99.90;;;;;;5073366;28;20033;-60
2022/01/21 03:21:40;;;;;;;4.10;1.75;;;9.00;99.90;;;;;;5073348;28;20036;-60
2022/01/21 03:24:12;;;;;;;5.43;2.28;;;9.00;99.90;;;;;;5071969;28;20082;-60
2022/01/21 03:26:39;;;;;;;2.65;1.67;;;9.00;99.90;;;;;;5073154;28;20032;-60
2022/01/21 03:29:06;;;;;;;3.67;1.50;;;9.00;99.90;;;;;;5072035;28;20039;-60
2022/01/21 03:31:41;;;;;;;5.57;1.98;;;8.90;99.90;;;;;;5073226;28;20124;-60
2022/01/21 03:34:10;;;;;;;4.72;2.60;;;8.90;99.90;;;;;;5073046;28;20432;-60
2022/01/21 03:36:36;;;;;;;5.30;2.25;;;8.90;99.90;;;;;;5073368;28;20385;-60
2022/01/21 03:39:04;;;;;;;5.45;2.15;;;8.90;99.90;;;;;;5073175;28;20067;-60
2022/01/21 03:41:30;;;;;;;2.72;1.88;;;8.80;99.90;;;;;;5073099;28;20020;-60
2022/01/21 03:43:58;;;;;;;5.03;2.00;;;8.80;99.90;;;;;;5073090;28;20489;-60
2022/01/21 03:46:25;;;;;;;6.60;2.22;;;8.80;99.90;;;;;;5071806;28;20156;-60
2022/01/21 03:48:52;;;;;;;6.22;1.83;;;8.80;99.90;;;;;;5073009;28;20026;-62
2022/01/21 03:51:20;;;;;;;6.65;2.33;;;8.80;99.90;;;;;;5073316;28;20393;-60
2022/01/21 03:53:50;;;;;;;3.70;2.15;;;8.80;99.90;;;;;;5073329;28;20370;-60
2022/01/21 03:56:17;;;;;;;3.83;1.90;;;8.80;99.90;;;;;;5073705;28;20044;-60
2022/01/21 03:58:44;;;;;;;13.57;1.85;;;8.80;99.90;;;;;;5072903;28;20021;-60
2022/01/21 04:01:15;;;;;;;4.78;2.10;;;8.70;99.90;;;;;;5072898;28;20124;-60
2022/01/21 04:03:42;;;;;;;5.22;2.20;;;8.70;99.90;;;;;;5071595;28;20375;-60
2022/01/21 04:06:09;;;;;;;8.93;2.70;;;8.70;99.90;;;;;;5071356;28;20040;-60
2022/01/21 04:08:35;;;;;;;5.32;2.10;;;8.70;99.90;;;;;;5071553;28;20029;-60
2022/01/21 04:11:07;;;;;;;7.55;2.38;;;8.80;99.90;;;;;;5073104;28;20362;-60
2022/01/21 04:13:38;;;;;;;3.85;1.98;;;8.90;99.90;;;;;;5072792;28;20041;-60
2022/01/21 04:16:08;;;;;;;10.98;3.58;;;8.80;99.90;;;;;;5072714;28;20112;-60
2022/01/21 04:18:37;;;;;;;4.43;2.00;;;8.90;99.90;;;;;;5072600;28;20119;-60
2022/01/21 04:21:07;;;;;;;7.80;2.55;;;8.90;99.90;;;;;;5072628;28;20482;-60
2022/01/21 04:23:35;;;;;;;3.00;2.05;;;8.90;99.90;;;;;;5072679;28;20040;-60
2022/01/21 04:26:04;;;;;;;6.05;2.58;;;8.90;99.90;;;;;;5071484;28;20039;-60
2022/01/21 04:28:32;;;;;;;9.63;2.40;;;8.90;99.90;;;;;;5073734;28;20365;-60
2022/01/21 04:31:03;;;;;;;4.88;2.05;;;8.90;99.90;;;;;;5075097;28;20115;-60
2022/01/21 04:33:50;;;;;;;8.40;1.90;;;8.80;99.90;;;;;;5074911;28;20035;-60
2022/01/21 04:36:17;;;;;;;8.20;2.17;;;8.80;99.90;;;;;;5076368;28;20524;-60
2022/01/21 04:38:44;;;;;;;7.03;1.95;;;8.70;99.90;;;;;;5074906;28;20074;-60
2022/01/21 04:49:25;;;;;;;10.10;2.15;;;8.70;99.90;;;;;;5075926;28;19916;-60
2022/01/21 04:52:02;;;;;;;6.35;1.58;;;8.70;99.90;;;;;;5074646;28;20036;-60
2022/01/21 04:54:42;;;;;;;4.38;2.17;;;8.60;99.90;;;;;;5075836;28;20036;-60
2022/01/21 04:57:09;;;;;;;2.70;1.88;;;8.60;99.90;;;;;;5074457;28;20036;-60
2022/01/21 04:59:38;;;;;;;3.45;1.90;;;8.60;99.90;;;;;;5075894;28;20059;-60
2022/01/21 05:02:05;;;;;;;4.05;1.75;;;8.60;99.90;;;;;;5074316;28;20436;-60
2022/01/21 05:04:33;;;;;;;4.70;2.33;;;8.50;99.90;;;;;;5075569;28;20021;-60
2022/01/21 05:07:02;;;;;;;2.83;1.63;;;8.50;99.90;;;;;;5075456;28;20090;-60
2022/01/21 05:09:32;;;;;;;3.83;1.98;;;8.50;99.90;;;;;;5075726;28;20025;-60
2022/01/21 05:12:02;;;;;;;3.38;1.70;;;8.50;99.90;;;;;;5075757;28;20381;-60
2022/01/21 05:17:24;;;;;;;3.45;1.85;;;8.50;99.90;;;;;;5075560;28;20123;-62
2022/01/21 05:19:52;;;;;;;4.95;2.25;;;8.40;99.90;;;;;;5075711;28;20033;-61
2022/01/21 05:22:44;;;;;;;8.90;2.15;;;8.40;99.90;;;;;;5075776;28;20462;-61
2022/01/21 05:25:16;;;;;;;7.78;2.40;;;8.40;99.90;;;;;;5075223;28;20036;-61
2022/01/21 05:27:59;;;;;;;6.22;2.17;;;8.40;99.90;;;;;;5075499;28;20379;-61
2022/01/21 05:30:27;;;;;;;4.13;2.33;;;8.40;99.90;;;;;;5075440;28;20027;-61
2022/01/21 05:33:26;;;;;;;4.85;2.92;;;8.40;99.90;;;;;;5052284;28;20032;-61
2022/01/21 05:36:14;;;;;;;5.82;3.45;;;8.40;99.90;;;;;;5075196;28;20118;-61
2022/01/21 05:39:15;;;;;;;5.03;2.50;;;8.40;99.90;;;;;;5075169;28;20029;-61
2022/01/21 05:41:55;;;;;;;4.78;2.65;;;8.40;99.90;;;;;;5074673;28;20024;-61
2022/01/21 05:47:37;;;;;;;5.43;2.47;;;8.40;99.90;;;;;;5074996;28;20033;-61
2022/01/21 05:50:24;;;;;;;4.35;2.63;;;8.40;99.90;;;;;;5074657;28;20055;-61
2022/01/21 05:53:16;;;;;;;7.05;2.83;;;8.40;99.90;;;;;;5074870;28;20439;-61
2022/01/21 05:56:02;;;;;;;3.72;1.77;;;8.40;99.90;;;;;;5074508;28;20023;-61
2022/01/21 05:58:40;;;;;;;4.95;2.58;;;8.40;99.90;;;;;;5073437;28;20044;-61
2022/01/21 06:01:07;;;;;;;7.63;2.55;;;8.50;99.90;;;;;;5074500;28;20087;-61
2022/01/21 06:03:34;;;;;;;8.57;2.90;;;8.40;99.90;;;;;;5074782;28;20131;-61
2022/01/21 06:06:01;;;;;;;4.50;2.60;;;8.40;99.90;;;;;;5073938;28;20131;-61
2022/01/21 06:08:27;;;;;;;8.65;2.85;;;8.40;99.90;;;;;;5072959;28;20028;-62
2022/01/21 06:10:54;;;;;;;6.60;2.67;;;8.40;99.90;;;;;;5073077;28;20028;-61
2022/01/21 06:13:20;;;;;;;6.22;2.20;;;8.40;99.90;;;;;;5074227;28;20111;-62
2022/01/21 06:15:47;;;;;;;3.10;2.10;;;8.40;99.90;;;;;;5072897;28;20021;-61
2022/01/21 06:18:16;;;;;;;7.13;2.70;;;8.40;99.90;;;;;;5074126;28;20038;-61
2022/01/21 06:20:43;;;;;;;6.97;3.83;;;8.40;99.90;;;;;;5074188;28;20024;-62
2022/01/21 06:23:10;;;;;;;8.23;4.18;;;8.50;99.90;;;;;;5074358;28;20470;-62
2022/01/21 06:25:36;;;;;;;10.38;3.10;;;8.50;99.90;;;;;;5074300;28;20029;-62
2022/01/21 06:28:03;;;;;;;6.38;2.70;;;8.50;99.90;;;;;;5073870;28;20375;-62
2022/01/21 06:30:30;;;;;;;8.60;3.95;;;8.50;99.90;;;;;;5073930;28;20032;-62
2022/01/21 06:32:56;;;;;;;7.45;2.97;;;8.50;99.90;;;;;;5073869;28;20028;-62
2022/01/21 06:35:23;;;;;;;7.03;3.33;;;8.50;99.90;;;;;;5074050;28;20025;-62
2022/01/21 06:37:49;;;;;;;7.03;3.17;;;8.50;99.90;;;;;;5073647;28;20037;-61
2022/01/21 06:40:19;;;;;;;8.57;2.65;;;8.60;99.90;;;;;;5074120;28;20031;-62
2022/01/21 06:42:51;;;;;;;3.10;2.42;;;8.70;99.90;;;;;;5073751;28;20094;-62
2022/01/21 06:45:19;;;;;;;4.95;2.70;;;8.70;99.90;;;;;;5073665;28;20374;-62
2022/01/21 06:47:46;;;;;;;9.82;2.67;;;8.70;99.90;;;;;;5073653;28;20028;-62
2022/01/21 06:50:13;;;;;;;4.13;2.60;;;8.80;99.90;;;;;;5073499;28;20035;-61
2022/01/21 06:52:39;;;;;;;3.58;2.60;;;8.80;99.90;;;;;;5073474;28;20056;-61
2022/01/21 06:55:07;;;;;;;5.35;2.63;;;8.90;99.90;;;;;;5073445;28;20086;-62
2022/01/21 06:57:38;;;;;;;5.80;2.35;;;9.00;99.90;;;;;;5073362;28;20094;-62
2022/01/21 07:00:13;;;;;;;6.45;3.58;;;8.90;99.90;;;;;;5073312;28;20037;-62
2022/01/21 07:02:40;;;;;;;3.75;2.17;;;9.00;99.90;;;;;;5073243;28;20111;-61
2022/01/21 07:05:07;;;;;;;9.32;4.15;;;9.00;99.90;;;;;;5073496;28;20041;-62
2022/01/21 07:07:34;;;;;;;6.95;3.65;;;8.90;99.90;;;;;;5073576;28;20041;-62
2022/01/21 07:10:05;;;;;;;8.00;4.10;;;8.90;99.90;;;;;;5073302;28;20032;-62
2022/01/21 07:12:33;;;;;;;13.30;3.60;;;9.00;99.90;;;;;;5073764;28;20033;-62
2022/01/21 07:15:00;;;;;;;7.90;3.38;;;9.00;99.90;;;;;;5073351;28;20024;-62
2022/01/21 07:17:27;;;;;;;9.50;3.22;;;9.10;99.90;;;;;;5073120;28;20039;-62
2022/01/21 07:19:53;;;;;;;6.97;2.60;;;9.10;99.90;;;;;;5073271;28;20044;-62
2022/01/21 07:22:19;;;;;;;5.55;2.45;;;9.20;99.90;;;;;;5073317;28;20112;-62
2022/01/21 07:24:49;;;;;;;5.10;2.17;;;9.30;99.90;;;;;;5073672;28;20121;-62
2022/01/21 07:27:16;;;;;;;5.18;2.08;;;9.50;99.90;;;;;;5073295;28;20047;-62
2022/01/21 07:29:43;;;;;;;3.95;2.03;;;9.60;99.90;;;;;;5076361;28;20492;-62
2022/01/21 07:32:12;;;;;;;4.90;2.10;;;9.70;99.90;;;;;;5093182;28;20492;-62
2022/01/21 07:34:39;;;;;;;3.10;1.67;;;9.70;99.90;;;;;;5093621;28;20028;-62
2022/01/21 07:37:05;;;;;;;8.75;2.55;;;9.70;99.90;;;;;;5093116;28;20090;-62
2022/01/21 07:39:32;;;;;;;6.47;2.60;;;9.80;99.90;;;;;;5093316;28;20044;-62
2022/01/21 07:41:59;;;;;;;9.90;2.83;;;9.90;99.90;;;;;;5093099;28;20028;-62
2022/01/21 07:44:26;;;;;;;6.53;2.88;;;10.00;99.90;;;;;;5093099;28;20031;-62
2022/01/21 07:46:52;;;;;;;4.57;2.85;;;10.10;99.90;;;;;;5093274;28;20477;-62
2022/01/21 07:49:19;;;;;;;3.20;2.45;;;10.20;99.90;;;;;;5093495;28;20028;-62
2022/01/21 07:51:46;;;;;;;4.20;2.13;;;10.40;99.90;;;;;;5092995;28;20036;-62
2022/01/21 07:54:15;;;;;;;4.93;2.15;;;10.50;99.90;;;;;;5093119;28;20024;-62
2022/01/21 07:56:42;;;;;;;5.75;2.63;;;10.60;99.90;;;;;;5093162;28;20456;-62
2022/01/21 07:59:12;;;;;;;2.85;1.55;;;10.60;99.90;;;;;;5093413;28;20098;-62
2022/01/21 08:01:39;;;;;;;2.15;1.60;;;10.70;99.90;;;;;;5093678;28;20350;-61
2022/01/21 08:04:07;;;;;;;4.55;3.00;;;10.70;99.90;;;;;;5093002;28;20400;-62
2022/01/21 08:06:34;;;;;;;1.30;1.00;;;10.80;99.90;;;;;;5096563;28;20040;-62
2022/01/21 08:09:03;;;;;;;4.97;1.10;;;10.90;99.90;;;;;;5096855;28;20107;-62
2022/01/21 08:11:30;;;;;;;2.45;1.10;;;11.00;99.90;;;;;;5096752;28;20076;-62
2022/01/21 08:13:56;;;;;;;5.55;1.75;;;11.10;99.90;;;;;;5096780;28;20025;-62
2022/01/21 08:16:23;;;;;;;2.97;1.20;;;11.30;99.90;;;;;;5097355;28;20055;-62
2022/01/21 08:18:54;;;;;;;2.63;1.10;;;11.40;99.90;;;;;;5096959;28;20377;-62
2022/01/21 08:21:23;;;;;;;9.38;1.52;;;11.50;99.90;;;;;;5096969;28;20478;-61
2022/01/21 08:23:53;;;;;;;2.10;1.40;;;11.60;99.90;;;;;;5096654;28;20125;-62
2022/01/21 08:26:24;;;;;;;2.47;1.50;;;11.70;99.90;;;;;;5096363;28;20541;-62
2022/01/21 08:28:52;;;;;;;6.00;1.80;;;11.80;99.90;;;;;;5096747;28;20040;-62
2022/01/21 08:31:24;;;;;;;7.95;1.67;;;11.80;99.90;;;;;;5096294;28;20028;-62
2022/01/21 08:33:51;;;;;;;4.72;2.25;;;11.90;99.90;;;;;;5096337;28;20032;-62
2022/01/21 08:36:22;;;;;;;5.22;1.70;;;11.90;99.90;;;;;;5096270;28;20035;-62
2022/01/21 08:38:52;;;;;;;2.80;2.03;;;12.10;99.90;;;;;;5096335;28;20093;-62
2022/01/21 08:41:20;;;;;;;5.13;2.00;;;12.20;99.90;;;;;;5096401;28;20097;-62
2022/01/21 08:43:47;;;;;;;11.27;3.30;;;12.00;99.90;;;;;;5096982;28;20380;-62
2022/01/21 08:46:14;;;;;;;8.90;3.80;;;12.20;99.90;;;;;;5096515;28;20544;-62
2022/01/21 08:48:40;;;;;;;6.28;2.78;;;12.20;99.90;;;;;;5096332;28;20427;-62
2022/01/21 08:51:09;;;;;;;7.70;2.17;;;12.20;99.90;;;;;;5096085;28;20361;-62
2022/01/21 08:53:38;;;;;;;4.93;2.17;;;12.20;99.90;;;;;;5096318;28;20028;-62
2022/01/21 08:56:15;;;;;;;6.45;1.90;;;12.20;99.90;;;;;;5095790;28;20081;-62
2022/01/21 08:58:43;;;;;;;4.35;1.90;;;12.20;99.90;;;;;;5095935;28;20035;-62
2022/01/21 09:01:11;;;;;;;2.92;1.00;;;12.30;99.90;;;;;;5096040;28;20028;-62
2022/01/21 09:03:40;;;;;;;2.03;1.23;;;12.20;99.90;;;;;;5096656;28;20074;-62
2022/01/21 09:06:07;;;;;;;9.60;1.60;;;12.20;99.90;;;;;;5095595;28;20404;-62
2022/01/21 09:08:34;;;;;;;2.30;1.15;;;12.40;99.90;;;;;;5095759;28;20388;-62
2022/01/21 09:11:04;;;;;;;1.65;0.93;;;12.50;99.90;;;;;;5096055;28;20032;-62
2022/01/21 09:13:34;;;;;;;5.30;1.55;;;12.40;99.90;;;;;;5095557;28;20031;-62
2022/01/21 09:16:01;;;;;;;4.03;1.30;;;12.50;99.90;;;;;;5095221;28;20032;-62
2022/01/21 09:18:52;;;;;;;2.53;1.08;;;12.50;99.90;;;;;;5095340;28;20039;-62
2022/01/21 09:21:24;;;;;;;3.45;1.02;;;12.60;99.90;;;;;;5095141;28;20044;-62
2022/01/21 09:23:52;;;;;;;2.40;1.42;;;12.60;99.90;;;;;;5096332;28;20110;-62
2022/01/21 09:26:22;;;;;;;7.28;1.75;;;12.60;99.90;;;;;;5095236;28;20035;-62
2022/01/21 09:28:52;;;;;;;4.93;1.00;;;12.60;99.90;;;;;;5095352;28;20154;-62
2022/01/21 09:31:20;;;;;;;1.17;1.00;;;12.60;99.90;;;;;;5095280;28;20586;-62
2022/01/21 09:33:48;;;;;;;3.47;1.25;;;12.50;99.90;;;;;;5095232;28;20569;-62
2022/01/21 09:36:16;;;;;;;0.80;0.73;;;12.60;99.90;;;;;;5095270;28;20032;-62
2022/01/21 09:38:43;;;;;;;3.45;0.85;;;12.70;99.90;;;;;;5095030;28;20043;-62
2022/01/21 09:41:11;;;;;;;2.03;0.95;;;12.70;99.90;;;;;;5095431;28;20056;-62
2022/01/21 09:43:39;;;;;;;1.58;1.15;;;12.60;99.90;;;;;;5095032;28;20050;-62
2022/01/21 09:46:07;;;;;;;2.33;0.82;;;12.60;99.90;;;;;;5094940;28;20028;-62
2022/01/21 09:48:49;;;;;;;3.58;1.95;;;12.70;99.90;;;;;;5094770;28;20028;-62
2022/01/21 09:51:16;;;;;;;2.95;1.30;;;12.70;99.90;;;;;;5095025;28;20438;-62
2022/01/21 09:53:46;;;;;;;4.65;1.75;;;12.60;99.90;;;;;;5094604;28;20028;-62
2022/01/21 09:56:17;;;;;;;2.58;1.45;;;12.60;99.90;;;;;;5094580;28;20036;-62
2022/01/21 09:58:46;;;;;;;1.25;1.02;;;12.60;99.90;;;;;;5094483;28;20039;-62
2022/01/21 10:01:17;;;;;;;5.53;1.42;;;12.60;99.90;;;;;;5094559;28;20050;-62
2022/01/21 10:03:45;;;;;;;4.38;1.05;;;12.80;99.90;;;;;;5094678;28;20058;-62
2022/01/21 10:06:12;;;;;;;1.52;1.00;;;12.80;99.90;;;;;;5076138;28;20580;-62
2022/01/21 10:08:41;;;;;;;3.63;1.13;;;12.70;99.90;;;;;;5094781;28;20056;-62
2022/01/21 10:11:10;;;;;;;3.17;1.45;;;12.50;99.90;;;;;;5094480;28;20488;-61
2022/01/21 10:13:42;;;;;;;2.65;0.93;;;12.50;99.90;;;;;;5094338;28;20058;-62
2022/01/21 10:16:09;;;;;;;4.47;1.08;;;12.80;99.90;;;;;;5094349;28;20029;-62
2022/01/21 10:18:36;;;;;;;2.65;0.88;;;13.00;99.90;;;;;;5094466;28;20034;-62
2022/01/21 10:21:10;;;;;;;4.47;1.35;;;13.00;99.90;;;;;;5094504;28;20027;-61
2022/01/21 10:23:43;;;;;;;1.85;1.02;;;13.00;99.90;;;;;;5094354;28;20032;-62
2022/01/21 10:26:12;;;;;;;1.77;1.67;;;13.00;99.90;;;;;;5094196;28;20024;-62
2022/01/21 10:28:42;;;;;;;6.10;1.83;;;12.90;99.90;;;;;;5093464;28;20032;-62
2022/01/21 10:31:13;;;;;;;2.88;1.40;;;12.70;99.90;;;;;;5094645;28;20028;-62
2022/01/21 10:33:47;;;;;;;4.95;1.35;;;12.80;99.90;;;;;;5094519;28;20039;-62
2022/01/21 10:36:31;;;;;;;2.57;1.57;;;12.90;99.90;;;;;;5094442;28;20024;-62
2022/01/21 10:39:17;;;;;;;5.40;2.03;;;12.80;99.90;;;;;;5094568;28;20032;-62
2022/01/21 10:41:49;;;;;;;5.90;1.67;;;12.80;99.90;;;;;;5093847;28;20032;-62
2022/01/21 10:44:19;;;;;;;4.72;1.50;;;12.90;99.90;;;;;;5094236;28;20028;-62
2022/01/21 10:47:11;;;;;;;2.00;1.10;;;12.90;99.90;;;;;;5093833;28;20031;-62
2022/01/21 10:49:40;;;;;;;4.03;1.00;;;12.70;99.90;;;;;;5094173;28;20036;-61
2022/01/21 10:52:15;;;;;;;2.20;0.95;;;12.70;99.90;;;;;;5093817;28;20536;-61
2022/01/21 10:54:43;;;;;;;2.25;1.27;;;12.70;99.90;;;;;;5093657;28;20032;-61
2022/01/21 10:57:10;;;;;;;1.65;1.10;;;12.70;99.90;;;;;;5093703;28;20496;-61
2022/01/21 10:59:51;;;;;;;2.95;1.02;;;12.90;99.90;;;;;;5094230;28;20032;-62
2022/01/21 11:02:49;;;;;;;2.38;0.60;;;12.90;99.90;;;;;;5093769;28;20028;-62
2022/01/21 11:05:36;;;;;;;1.27;0.93;;;12.90;99.90;;;;;;5093346;28;20056;-61
2022/01/21 11:08:09;;;;;;;1.45;0.80;;;12.90;99.90;;;;;;5094235;28;20024;-62
2022/01/21 11:10:42;;;;;;;3.08;1.02;;;13.00;99.90;;;;;;5093506;28;20039;-61
2022/01/21 11:13:20;;;;;;;5.93;2.13;;;12.90;99.90;;;;;;5093793;28;20523;-62
2022/01/21 11:15:55;;;;;;;3.97;1.65;;;12.80;99.90;;;;;;5093740;28;20110;-61
2022/01/21 11:18:24;;;;;;;2.53;0.90;;;12.80;99.90;;;;;;5094289;28;20124;-62
2022/01/21 11:20:59;;;;;;;1.10;0.73;;;12.90;99.90;;;;;;5093456;28;20020;-62
2022/01/21 11:23:29;;;;;;;0.95;0.85;;;12.80;99.90;;;;;;5093237;28;20028;-62
2022/01/21 11:26:00;;;;;;;2.40;1.20;;;12.80;99.90;;;;;;5093342;28;20036;-62
2022/01/21 11:28:34;;;;;;;1.58;0.80;;;12.80;99.90;;;;;;5093321;28;20028;-62
2022/01/21 11:31:00;;;;;;;1.83;1.25;;;12.90;99.90;;;;;;5093283;28;20115;-62
2022/01/21 11:33:33;;;;;;;6.07;1.73;;;12.80;99.90;;;;;;5093239;28;20016;-62
2022/01/21 11:36:01;;;;;;;3.33;1.30;;;12.90;99.90;;;;;;5093528;28;20099;-62
2022/01/21 11:38:40;;;;;;;5.75;1.48;;;13.00;99.90;;;;;;5093204;28;20040;-61
2022/01/21 11:41:11;;;;;;;5.10;1.38;;;13.00;99.90;;;;;;5097668;28;20024;-62
2022/01/21 11:43:45;;;;;;;4.70;1.80;;;13.00;99.90;;;;;;5097249;28;20478;-62
2022/01/21 11:46:17;;;;;;;5.07;1.90;;;13.10;99.90;;;;;;5097094;28;20081;-62
2022/01/21 11:48:54;;;;;;;4.72;1.48;;;12.90;99.90;;;;;;5097873;28;20125;-62
2022/01/21 11:51:28;;;;;;;2.72;1.60;;;13.10;99.90;;;;;;5097828;28;20031;-62
2022/01/21 11:53:59;;;;;;;8.73;2.63;;;13.10;99.90;;;;;;5097128;28;20028;-61
2022/01/21 11:56:42;;;;;;;7.32;4.03;;;12.90;99.90;;;;;;5097138;28;20036;-61
2022/01/21 11:59:12;;;;;;;7.03;1.65;;;12.80;99.90;;;;;;5097401;28;20032;-61
2022/01/21 12:01:48;;;;;;;8.88;4.28;;;12.80;99.90;;;;;;5097007;28;20111;-62
2022/01/21 12:04:53;;;;;;;6.18;3.05;;;12.80;99.90;;;;;;5096908;28;20027;-61
2022/01/21 12:07:40;;;;;;;4.13;2.08;;;12.80;99.90;;;;;;5096840;28;20044;-61
2022/01/21 12:10:10;;;;;;;4.30;2.10;;;12.90;99.90;;;;;;5096822;28;20036;-62
2022/01/21 12:12:59;;;;;;;3.72;1.90;;;13.00;99.90;;;;;;5097150;28;20082;-62
2022/01/21 12:15:31;;;;;;;5.68;2.72;;;13.20;99.90;;;;;;5096704;28;20066;-61
2022/01/21 12:18:06;;;;;;;3.65;1.73;;;13.10;99.90;;;;;;5096522;28;20113;-62
2022/01/21 12:20:36;;;;;;;2.85;1.88;;;13.00;99.90;;;;;;5096663;28;20082;-62
2022/01/21 12:23:47;;;;;;;5.07;2.58;;;12.90;99.90;;;;;;5096918;28;20392;-62
2022/01/21 12:26:24;;;;;;;5.28;2.55;;;12.70;99.90;;;;;;4994679;28;20169;-61
2022/01/21 12:28:54;;;;;;;5.53;2.42;;;12.80;99.90;;;;;;4995106;28;20031;-61
2022/01/21 12:31:53;;;;;;;8.88;2.55;;;12.90;99.90;;;;;;4994632;28;20050;-62
2022/01/21 12:34:56;;;;;;;5.20;2.70;;;12.80;99.90;;;;;;4994880;28;20038;-62
2022/01/21 12:37:26;;;;;;;9.57;3.30;;;12.70;99.90;;;;;;4994476;28;20074;-61
2022/01/21 12:39:52;;;;;;;10.10;2.67;;;12.70;99.90;;;;;;4994601;28;20026;-61
2022/01/21 12:42:25;;;;;;;6.20;2.88;;;12.60;99.90;;;;;;4994619;28;20551;-61
2022/01/21 12:45:08;;;;;;;8.40;2.85;;;12.50;99.90;;;;;;4994520;28;20524;-61
2022/01/21 12:47:44;;;;;;;5.90;2.58;;;12.50;99.90;;;;;;4995236;28;20034;-66
2022/01/21 12:50:36;;;;;;;6.68;2.35;;;12.40;99.90;;;;;;4996030;28;20030;-85
2022/01/21 12:53:34;;;;;;;4.97;1.98;;;12.30;99.90;;;;;;4985142;28;20053;-85
2022/01/21 12:56:04;;;;;;;5.38;2.30;;;12.30;99.90;;;;;;4973214;28;20031;-90
2022/01/21 12:58:44;;;;;;;4.45;2.60;;;12.40;99.90;;;;;;4964898;28;20126;-93
2022/01/21 13:01:16;;;;;;;3.92;1.83;;;12.30;99.90;;;;;;4945870;28;20040;-86
2022/01/21 13:03:46;;;;;;;4.13;2.10;;;12.20;99.90;;;;;;5002594;28;20034;-91
2022/01/21 13:06:34;;;;;;;10.25;2.40;;;12.20;99.90;;;;;;4990238;28;20495;-88
2022/01/21 13:09:17;;;;;;;2.80;1.88;;;12.20;99.90;;;;;;5060571;23;20267;-88
2022/01/21 13:11:55;;;;;;;3.00;1.48;;;12.20;99.90;;;;;;5022993;28;20124;-83
2022/01/21 13:14:45;;;;;;;2.75;1.40;;;12.20;99.90;;;;;;5057060;28;20021;-87
2022/01/21 13:17:15;;;;;;;2.97;1.60;;;12.10;99.90;;;;;;5038991;28;20375;-89
2022/01/21 13:19:54;;;;;;;4.20;1.23;;;12.10;99.90;;;;;;5042330;28;20496;-85
2022/01/21 13:22:28;;;;;;;2.83;1.40;;;12.20;99.90;;;;;;5041334;28;20032;-84
2022/01/21 13:25:10;;;;;;;2.95;1.95;;;12.20;99.90;;;;;;5057854;28;20036;-83
2022/01/21 13:27:53;;;;;;;10.00;4.70;;;12.20;99.90;;;;;;5057838;28;20139;-86
2022/01/21 13:30:23;;;;;;;9.35;3.08;;;12.20;99.90;;;;;;5058213;28;20132;-84
2022/01/21 13:33:01;;;;;;;6.88;3.05;;;12.20;99.90;;;;;;5074607;28;20028;-85
2022/01/21 13:35:29;;;;;;;7.45;3.83;;;12.10;99.90;;;;;;5057684;28;20081;-85
2022/01/21 13:38:08;;;;;;;3.58;1.67;;;12.10;99.90;;;;;;5074168;28;20547;-85
2022/01/21 13:40:42;;;;;;;4.38;2.10;;;12.10;99.90;;;;;;5040809;28;20039;-83
2022/01/21 13:43:21;;;;;;;4.35;1.75;;;12.10;99.90;;;;;;5057333;28;20033;-83
2022/01/21 13:46:00;;;;;;;13.95;3.70;;;12.10;99.90;;;;;;5040795;28;20056;-84
2022/01/21 13:48:29;;;;;;;6.03;2.85;;;12.00;99.90;;;;;;5057170;28;20093;-83
2022/01/21 13:51:04;;;;;;;9.93;3.67;;;12.00;99.90;;;;;;5040497;28;20093;-82
2022/01/21 13:53:30;;;;;;;8.45;2.40;;;12.00;99.90;;;;;;5057074;28;20486;-85
2022/01/21 13:56:02;;;;;;;12.38;2.25;;;11.90;99.90;;;;;;5057282;28;20136;-83
2022/01/21 13:58:32;;;;;;;3.70;1.63;;;11.90;99.90;;;;;;5040339;28;20040;-83
2022/01/21 14:01:11;;;;;;;3.67;1.50;;;11.80;99.90;;;;;;5040428;28;20473;-84
2022/01/21 14:03:40;;;;;;;2.35;1.33;;;11.70;99.90;;;;;;5040413;28;20062;-85
2022/01/21 14:06:09;;;;;;;11.50;1.02;;;11.60;99.90;;;;;;5073620;28;20085;-84
2022/01/21 14:08:51;;;;;;;5.63;1.67;;;11.50;99.90;;;;;;5057048;28;20037;-85